createdAt,value
2022-11-05T00:01:49.681Z,62.42
2022-11-05T00:04:34.972Z,65.53
2022-11-05T00:07:31.346Z,61.70
2022-11-05T00:10:04.137Z,58.70
2022-11-05T00:12:49.548Z,63.40
2022-11-05T00:15:34.814Z,58.72
2022-11-05T00:18:01.318Z,58.60
2022-11-05T00:20:27.858Z,60.75
2022-11-05T00:23:23.329Z,63.42
2022-11-05T00:26:04.177Z,54.30
2022-11-05T00:28:31.927Z,56.95
2022-11-05T00:31:06.028Z,54.63
2022-11-05T00:33:32.848Z,55.22
2022-11-05T00:35:59.336Z,50.30
2022-11-05T00:38:25.833Z,54.28
2022-11-05T00:40:52.330Z,54.58
2022-11-05T00:43:37.440Z,52.20
2022-11-05T00:46:03.968Z,54.45
2022-11-05T00:48:49.037Z,48.75
2022-11-05T00:51:15.840Z,44.08
2022-11-05T00:53:42.711Z,46.28
2022-11-05T00:56:09.368Z,45.28
2022-11-05T00:58:36.067Z,45.92
2022-11-05T01:01:03.574Z,45.42
2022-11-05T01:03:33.488Z,44.70
2022-11-05T01:06:06.385Z,45.38
2022-11-05T01:08:32.963Z,45.00
2022-11-05T01:10:59.764Z,44.67
2022-11-05T01:13:28.868Z,44.33
2022-11-05T01:15:56.664Z,43.38
2022-11-05T01:18:25.359Z,42.95
2022-11-05T01:20:54.595Z,42.25
2022-11-05T01:23:21.485Z,42.08
2022-11-05T01:25:48.244Z,44.15
2022-11-05T01:28:14.770Z,45.65
2022-11-05T01:30:41.345Z,43.10
2022-11-05T01:33:08.139Z,43.83
2022-11-05T01:35:34.845Z,42.88
2022-11-05T01:38:01.406Z,43.90
2022-11-05T01:40:27.904Z,43.88
2022-11-05T01:42:54.406Z,43.00
2022-11-05T01:45:26.342Z,42.17
2022-11-05T01:47:57.793Z,38.47
2022-11-05T01:50:36.120Z,39.78
2022-11-05T01:53:28.795Z,38.65
2022-11-05T01:56:07.177Z,39.22
2022-11-05T01:58:42.560Z,36.05
2022-11-05T02:01:09.417Z,36.35
2022-11-05T02:03:36.089Z,37.95
2022-11-05T02:06:03.305Z,38.38
2022-11-05T02:09:07.275Z,37.47
2022-11-05T02:11:33.824Z,38.30
2022-11-05T02:14:01.074Z,38.65
2022-11-05T02:16:43.843Z,38.17
2022-11-05T02:20:01.334Z,37.28
2022-11-05T02:22:55.093Z,35.10
2022-11-05T02:25:40.761Z,35.30
2022-11-05T02:28:25.513Z,36.10
2022-11-05T02:31:02.375Z,35.15
2022-11-05T02:33:56.811Z,38.95
2022-11-05T02:36:26.006Z,36.13
2022-11-05T02:39:11.996Z,33.85
2022-11-05T02:41:51.657Z,33.25
2022-11-05T02:44:27.472Z,32.95
2022-11-05T02:47:18.307Z,34.05
2022-11-05T02:49:54.005Z,35.80
2022-11-05T02:52:29.132Z,37.85
2022-11-05T02:55:23.516Z,38.28
2022-11-05T02:57:50.019Z,39.17
2022-11-05T03:00:44.497Z,41.90
2022-11-05T03:03:36.717Z,44.67
2022-11-05T03:06:22.941Z,44.55
2022-11-05T03:08:54.289Z,47.05
2022-11-05T03:11:26.005Z,49.13
2022-11-05T03:14:12.816Z,51.72
2022-11-05T03:16:47.620Z,53.92
2022-11-05T03:19:24.332Z,54.22
2022-11-05T03:21:57.545Z,54.53
2022-11-05T03:24:29.622Z,53.00
2022-11-05T03:27:13.488Z,55.05
2022-11-05T03:29:50.637Z,55.92
2022-11-05T03:32:20.778Z,61.20
2022-11-05T03:34:55.084Z,60.47
2022-11-05T03:37:23.629Z,59.80
2022-11-05T03:39:56.796Z,56.67
2022-11-05T03:42:28.312Z,56.22
2022-11-05T03:44:58.753Z,55.92
2022-11-05T03:47:30.878Z,51.13
2022-11-05T03:50:13.176Z,48.92
2022-11-05T03:52:52.056Z,50.15
2022-11-05T03:55:22.573Z,53.42
2022-11-05T03:57:53.821Z,48.63
2022-11-05T04:00:22.196Z,48.88
2022-11-05T04:02:49.025Z,49.83
2022-11-05T04:05:15.842Z,48.78
2022-11-05T04:08:02.721Z,50.30
2022-11-05T04:10:47.514Z,48.47
2022-11-05T04:13:25.754Z,51.60
2022-11-05T04:16:12.227Z,57.67
2022-11-05T04:18:38.860Z,57.80
2022-11-05T04:21:25.322Z,56.97
2022-11-05T04:24:10.207Z,58.78
2022-11-05T04:26:46.584Z,58.70
2022-11-05T04:29:31.873Z,68.65
2022-11-05T04:31:58.399Z,65.47
2022-11-05T04:34:24.971Z,67.15
2022-11-05T04:36:53.227Z,71.68
2022-11-05T04:39:20.702Z,71.70
2022-11-05T04:41:48.723Z,74.57
2022-11-05T04:44:16.099Z,72.17
2022-11-05T04:46:42.925Z,74.00
2022-11-05T04:49:10.646Z,73.30
2022-11-05T04:51:37.156Z,71.38
2022-11-05T04:54:03.846Z,75.07
2022-11-05T04:56:30.380Z,75.75
2022-11-05T04:58:56.870Z,69.47
2022-11-05T05:01:25.212Z,79.07
2022-11-05T05:03:53.889Z,69.82
2022-11-05T05:06:21.411Z,67.93
2022-11-05T05:08:49.472Z,69.55
2022-11-05T05:11:18.373Z,67.63
2022-11-05T05:13:45.220Z,71.63
2022-11-05T05:16:19.784Z,73.75
2022-11-05T05:21:32.456Z,84.85
2022-11-05T05:23:59.065Z,94.32
2022-11-05T05:26:25.623Z,91.97
2022-11-05T05:28:53.781Z,90.50
2022-11-05T05:31:21.393Z,97.90
2022-11-05T05:33:48.333Z,89.97
2022-11-05T05:36:15.003Z,87.30
2022-11-05T05:38:41.497Z,80.95
2022-11-05T05:41:08.057Z,83.13
2022-11-05T05:43:34.733Z,83.70
2022-11-05T05:46:02.864Z,79.93
2022-11-05T05:48:29.592Z,83.45
2022-11-05T05:51:03.728Z,87.85
2022-11-05T05:53:30.545Z,74.35
2022-11-05T05:55:58.328Z,75.85
2022-11-05T05:58:28.934Z,74.95
2022-11-05T06:00:55.587Z,72.95
2022-11-05T06:03:22.098Z,80.95
2022-11-05T06:05:48.697Z,73.88
2022-11-05T06:08:15.344Z,73.45
2022-11-05T06:10:41.864Z,73.00
2022-11-05T06:13:08.668Z,73.15
2022-11-05T06:15:36.183Z,70.93
2022-11-05T06:18:02.885Z,69.53
2022-11-05T06:20:29.390Z,66.82
2022-11-05T06:22:59.214Z,70.82
2022-11-05T06:25:26.080Z,69.68
2022-11-05T06:27:53.752Z,71.70
2022-11-05T06:30:21.734Z,74.05
2022-11-05T06:32:48.315Z,64.18
2022-11-05T06:35:14.897Z,74.47
2022-11-05T06:37:41.447Z,62.70
2022-11-05T06:40:08.945Z,75.70
2022-11-05T06:42:35.495Z,66.93
2022-11-05T06:45:02.221Z,75.95
2022-11-05T06:47:28.727Z,80.00
2022-11-05T06:49:56.800Z,68.72
2022-11-05T06:52:23.347Z,74.85
2022-11-05T06:54:50.116Z,82.72
2022-11-05T06:57:16.679Z,83.60
2022-11-05T06:59:43.201Z,89.05
2022-11-05T07:02:13.640Z,86.40
2022-11-05T07:04:40.305Z,89.90
2022-11-05T07:07:06.784Z,90.95
2022-11-05T07:09:33.314Z,96.15
2022-11-05T07:11:59.817Z,89.20
2022-11-05T07:14:26.368Z,88.88
2022-11-05T07:16:52.832Z,91.57
2022-11-05T07:19:19.326Z,89.25
2022-11-05T07:21:46.006Z,84.97
2022-11-05T07:24:14.375Z,80.13
2022-11-05T07:26:41.721Z,77.25
2022-11-05T07:29:08.262Z,72.85
2022-11-05T07:31:34.789Z,73.03
2022-11-05T07:34:01.615Z,62.08
2022-11-05T07:36:28.089Z,59.50
2022-11-05T07:38:59.871Z,58.90
2022-11-05T07:41:26.951Z,53.03
2022-11-05T07:43:53.549Z,52.67
2022-11-05T07:46:20.062Z,60.00
2022-11-05T07:48:46.608Z,53.67
2022-11-05T07:51:13.097Z,54.10
2022-11-05T07:53:44.056Z,41.78
2022-11-05T07:56:12.906Z,43.47
2022-11-05T07:58:39.401Z,41.15
2022-11-05T08:01:07.210Z,41.63
2022-11-05T08:03:33.975Z,41.95
2022-11-05T08:06:00.706Z,40.72
2022-11-05T08:08:27.277Z,36.17
2022-11-05T08:10:53.798Z,37.38
2022-11-05T08:13:21.369Z,41.20
2022-11-05T08:15:47.985Z,38.55
2022-11-05T08:18:16.845Z,37.75
2022-11-05T08:20:45.112Z,38.72
2022-11-05T08:23:12.550Z,43.47
2022-11-05T08:25:39.906Z,38.42
2022-11-05T08:28:12.845Z,38.83
2022-11-05T08:30:39.645Z,40.42
2022-11-05T08:33:10.070Z,42.67
2022-11-05T08:35:38.563Z,38.65
2022-11-05T08:38:07.395Z,39.88
2022-11-05T08:40:35.862Z,37.45
2022-11-05T08:43:04.269Z,38.78
2022-11-05T08:45:31.412Z,36.15
2022-11-05T08:48:12.300Z,40.13
2022-11-05T08:50:39.238Z,40.75
2022-11-05T08:53:06.557Z,45.58
2022-11-05T08:55:33.881Z,45.50
2022-11-05T08:58:02.901Z,45.10
2022-11-05T09:00:32.597Z,47.75
2022-11-05T09:03:04.617Z,46.10
2022-11-05T09:05:32.505Z,52.20
2022-11-05T09:08:01.388Z,52.70
2022-11-05T09:10:28.587Z,52.05
2022-11-05T09:12:55.474Z,52.33
2022-11-05T09:15:23.241Z,54.42
2022-11-05T09:17:50.107Z,51.28
2022-11-05T09:20:16.689Z,51.22
2022-11-05T09:22:43.666Z,54.63
2022-11-05T09:25:10.861Z,53.55
2022-11-05T09:27:37.334Z,49.63
2022-11-05T09:30:04.627Z,52.05
2022-11-05T09:32:32.060Z,50.50
2022-11-05T09:35:00.401Z,47.97
2022-11-05T09:37:28.233Z,49.42
2022-11-05T09:39:55.803Z,50.33
2022-11-05T09:42:29.225Z,50.65
2022-11-05T09:45:03.536Z,51.22
2022-11-05T09:47:34.992Z,51.50
2022-11-05T09:50:06.761Z,47.78
2022-11-05T09:52:34.535Z,49.70
2022-11-05T09:55:04.201Z,46.90
2022-11-05T09:57:52.138Z,48.08
2022-11-05T10:00:20.341Z,46.72
2022-11-05T10:02:52.580Z,48.75
2022-11-05T10:05:20.849Z,50.70
2022-11-05T10:07:51.197Z,53.33
2022-11-05T10:11:02.441Z,51.40
2022-11-05T10:13:37.779Z,52.97
2022-11-05T10:16:15.946Z,54.15
2022-11-05T10:18:48.089Z,48.67
2022-11-05T10:21:27.772Z,51.67
2022-11-05T10:24:13.819Z,47.95
2022-11-05T10:26:40.311Z,47.55
2022-11-05T10:29:06.965Z,47.88
2022-11-05T10:31:37.162Z,42.47
2022-11-05T10:34:07.080Z,45.42
2022-11-05T10:36:36.728Z,44.53
2022-11-05T10:39:13.049Z,44.47
2022-11-05T10:41:57.968Z,40.67
2022-11-05T10:47:14.490Z,40.67
2022-11-05T10:50:02.443Z,42.10
2022-11-05T10:52:36.730Z,47.85
2022-11-05T10:55:18.707Z,42.60
2022-11-05T10:57:48.021Z,46.60
2022-11-05T11:00:21.495Z,51.60
2022-11-05T11:02:59.113Z,70.50
2022-11-05T11:05:31.714Z,87.25
2022-11-05T11:08:13.140Z,89.03
2022-11-05T11:10:51.164Z,135.30
2022-11-05T11:13:21.095Z,116.50
2022-11-05T11:15:50.705Z,122.18
2022-11-05T11:18:40.077Z,148.38
2022-11-05T11:21:16.254Z,143.13
2022-11-05T11:23:43.871Z,116.68
2022-11-05T11:26:12.940Z,98.55
2022-11-05T11:28:55.719Z,85.05
2022-11-05T11:31:25.408Z,82.00
2022-11-05T11:34:00.865Z,111.13
2022-11-05T11:36:34.703Z,62.47
2022-11-05T11:39:04.445Z,48.30
2022-11-05T11:41:44.147Z,62.13
2022-11-05T11:44:27.317Z,31.60
2022-11-05T11:46:57.306Z,30.08
2022-11-05T11:49:31.204Z,29.67
2022-11-05T11:52:03.305Z,18.30
2022-11-05T11:54:32.360Z,21.58
2022-11-05T11:56:58.857Z,20.33
2022-11-05T11:59:53.828Z,19.02
2022-11-05T12:02:17.687Z,19.70
2022-11-05T12:05:01.916Z,17.55
2022-11-05T12:07:45.133Z,18.55
2022-11-05T12:10:51.282Z,19.48
2022-11-05T12:13:20.735Z,18.70
2022-11-05T12:15:54.404Z,16.77
2022-11-05T12:18:48.826Z,17.90
2022-11-05T12:21:50.944Z,17.88
2022-11-05T12:24:34.155Z,17.42
2022-11-05T12:27:30.070Z,18.38
2022-11-05T12:30:09.429Z,19.80
2022-11-05T12:32:45.709Z,17.95
2022-11-05T12:35:18.932Z,18.77
2022-11-05T12:38:12.865Z,20.25
2022-11-05T12:41:07.443Z,22.83
2022-11-05T12:43:48.706Z,23.70
2022-11-05T12:46:36.235Z,21.60
2022-11-05T12:49:31.192Z,23.00
2022-11-05T12:52:35.402Z,23.70
2022-11-05T12:55:24.048Z,22.17
2022-11-05T12:57:54.521Z,22.10
2022-11-05T13:00:22.916Z,21.20
2022-11-05T13:03:19.832Z,25.70
2022-11-05T13:05:48.394Z,25.63
2022-11-05T13:08:21.661Z,25.55
2022-11-05T13:11:17.237Z,23.75
2022-11-05T13:13:58.521Z,25.35
2022-11-05T13:16:30.892Z,24.55
2022-11-05T13:19:24.289Z,26.92
2022-11-05T13:21:56.420Z,26.85
2022-11-05T13:24:28.402Z,29.10
2022-11-05T13:27:16.373Z,26.67
2022-11-05T13:29:52.630Z,32.92
2022-11-05T13:32:24.940Z,44.33
2022-11-05T13:34:55.108Z,38.63
2022-11-05T13:37:48.311Z,45.55
2022-11-05T13:40:18.980Z,49.83
2022-11-05T13:43:20.819Z,63.22
2022-11-05T13:46:06.142Z,77.03
2022-11-05T13:49:05.529Z,98.38
2022-11-05T13:51:54.073Z,108.35
2022-11-05T13:54:26.568Z,111.68
2022-11-05T13:57:30.717Z,111.47
2022-11-05T14:00:16.393Z,124.22
2022-11-05T14:02:56.896Z,130.52
2022-11-05T14:05:37.189Z,131.82
2022-11-05T14:08:18.728Z,132.77
2022-11-05T14:10:58.133Z,140.43
2022-11-05T14:13:35.005Z,143.23
2022-11-05T14:16:08.972Z,135.30
2022-11-05T14:18:39.883Z,140.93
2022-11-05T14:21:31.125Z,147.02
2022-11-05T14:23:59.932Z,149.95
2022-11-05T14:26:29.110Z,149.48
2022-11-05T14:28:58.547Z,149.15
2022-11-05T14:34:48.547Z,147.25
2022-11-05T14:37:22.484Z,147.57
2022-11-05T14:39:49.742Z,147.90
2022-11-05T14:42:29.535Z,139.23
2022-11-05T14:45:20.843Z,150.85
2022-11-05T14:47:57.410Z,150.50
2022-11-05T14:50:38.863Z,142.07
2022-11-05T14:53:38.352Z,152.65
2022-11-05T14:56:12.044Z,147.98
2022-11-05T14:58:41.068Z,149.47
2022-11-05T15:01:29.780Z,155.98
2022-11-05T15:04:17.431Z,151.45
2022-11-05T15:07:22.127Z,144.82
2022-11-05T15:10:01.474Z,148.10
2022-11-05T15:12:44.821Z,149.82
2022-11-05T15:15:29.737Z,150.38
2022-11-05T15:20:39.915Z,122.78
2022-11-05T15:23:12.884Z,132.57
2022-11-05T15:26:07.453Z,142.43
2022-11-05T15:28:46.370Z,137.55
2022-11-05T15:31:12.832Z,139.13
2022-11-05T15:33:41.726Z,139.63
2022-11-05T15:36:09.622Z,141.65
2022-11-05T15:38:36.163Z,143.88
2022-11-05T15:41:15.945Z,150.90
2022-11-05T15:43:48.063Z,146.23
2022-11-05T15:46:20.352Z,140.75
2022-11-05T15:48:49.817Z,149.10
2022-11-05T15:51:23.093Z,150.35
2022-11-05T15:54:23.802Z,149.40
2022-11-05T15:56:40.106Z,135.80
2022-11-05T15:59:28.449Z,141.85
2022-11-05T16:01:56.821Z,143.02
2022-11-05T16:04:28.712Z,147.30
2022-11-05T16:06:59.259Z,142.98
2022-11-05T16:09:34.749Z,133.88
2022-11-05T16:12:19.748Z,140.90
2022-11-05T16:15:08.088Z,131.43
2022-11-05T16:17:37.640Z,132.45
2022-11-05T16:20:38.730Z,133.00
2022-11-05T16:23:24.070Z,119.40
2022-11-05T16:25:51.068Z,117.32
2022-11-05T16:28:25.177Z,120.45
2022-11-05T16:31:00.580Z,122.65
2022-11-05T16:33:33.352Z,123.53
2022-11-05T16:35:59.933Z,120.88
2022-11-05T16:38:26.427Z,127.00
2022-11-05T16:40:52.915Z,118.13
2022-11-05T16:43:22.158Z,121.57
2022-11-05T16:45:48.756Z,122.68
2022-11-05T16:48:16.674Z,123.00
2022-11-05T16:50:43.434Z,125.68
2022-11-05T16:53:10.161Z,122.43
2022-11-05T16:55:38.801Z,128.35
2022-11-05T16:58:07.261Z,124.85
2022-11-05T17:00:33.985Z,120.85
2022-11-05T17:03:00.651Z,116.50
2022-11-05T17:05:29.861Z,126.28
2022-11-05T17:07:56.534Z,131.00
2022-11-05T17:10:24.986Z,129.82
2022-11-05T17:12:51.616Z,124.07
2022-11-05T17:15:25.950Z,114.47
2022-11-05T17:17:54.027Z,113.88
2022-11-05T17:20:32.505Z,116.05
2022-11-05T17:23:04.105Z,102.63
2022-11-05T17:25:31.113Z,101.45
2022-11-05T17:27:58.701Z,103.88
2022-11-05T17:30:25.318Z,94.78
2022-11-05T17:32:52.046Z,82.40
2022-11-05T17:35:19.085Z,72.80
2022-11-05T17:37:45.966Z,84.32
2022-11-05T17:40:16.451Z,82.13
2022-11-05T17:42:43.563Z,69.55
2022-11-05T17:45:11.693Z,70.22
2022-11-05T17:47:39.360Z,62.42
2022-11-05T17:50:08.080Z,67.13
2022-11-05T17:52:34.585Z,62.45
2022-11-05T17:55:01.354Z,62.60
2022-11-05T17:57:27.857Z,57.10
2022-11-05T17:59:54.406Z,53.33
2022-11-05T18:02:21.116Z,54.28
2022-11-05T18:04:47.774Z,51.08
2022-11-05T18:07:15.067Z,50.72
2022-11-05T18:09:42.058Z,50.75
2022-11-05T18:12:08.574Z,49.97
2022-11-05T18:14:35.097Z,51.50
2022-11-05T18:17:01.655Z,46.90
2022-11-05T18:19:28.245Z,44.35
2022-11-05T18:21:55.817Z,46.85
2022-11-05T18:24:22.880Z,45.05
2022-11-05T18:26:49.874Z,44.90
2022-11-05T18:29:16.566Z,44.22
2022-11-05T18:31:43.083Z,44.53
2022-11-05T18:34:10.404Z,45.10
2022-11-05T18:36:36.981Z,42.33
2022-11-05T18:39:05.187Z,43.22
2022-11-05T18:41:31.798Z,42.90
2022-11-05T18:43:59.979Z,42.75
2022-11-05T18:46:56.055Z,42.25
2022-11-05T18:49:14.393Z,42.90
2022-11-05T18:51:41.172Z,44.55
2022-11-05T18:54:08.582Z,43.33
2022-11-05T18:56:35.657Z,43.78
2022-11-05T18:59:30.146Z,45.85
2022-11-05T19:01:48.872Z,45.13
2022-11-05T19:04:15.481Z,44.83
2022-11-05T19:06:42.589Z,45.55
2022-11-05T19:09:12.031Z,45.97
2022-11-05T19:11:39.714Z,48.58
2022-11-05T19:14:06.297Z,46.92
2022-11-05T19:16:33.214Z,45.90
2022-11-05T19:19:02.368Z,45.28
2022-11-05T19:21:29.040Z,46.72
2022-11-05T19:24:00.150Z,48.72
2022-11-05T19:26:28.979Z,45.35
2022-11-05T19:28:58.786Z,48.35
2022-11-05T19:31:25.317Z,45.88
2022-11-05T19:33:52.817Z,47.80
2022-11-05T19:36:22.132Z,48.25
2022-11-05T19:38:53.234Z,48.20
2022-11-05T19:41:19.923Z,49.20
2022-11-05T19:43:46.768Z,48.55
2022-11-05T19:46:16.389Z,49.25
2022-11-05T19:48:44.193Z,48.00
2022-11-05T19:51:17.455Z,48.53
2022-11-05T19:53:43.992Z,47.53
2022-11-05T19:56:16.435Z,47.88
2022-11-05T19:58:43.874Z,46.58
2022-11-05T20:01:12.517Z,48.60
2022-11-05T20:03:39.650Z,48.42
2022-11-05T20:06:09.168Z,51.05
2022-11-05T20:08:47.787Z,49.10
2022-11-05T20:11:23.017Z,47.88
2022-11-05T20:13:49.604Z,48.67
2022-11-05T20:16:26.575Z,50.92
2022-11-05T20:18:53.275Z,48.53
2022-11-05T20:21:20.176Z,51.17
2022-11-05T20:23:47.608Z,51.88
2022-11-05T20:26:14.956Z,50.70
2022-11-05T20:28:43.787Z,50.88
2022-11-05T20:31:13.569Z,50.15
2022-11-05T20:33:41.142Z,51.60
2022-11-05T20:36:12.532Z,52.83
2022-11-05T20:38:39.442Z,51.45
2022-11-05T20:41:10.741Z,52.53
2022-11-05T20:43:38.752Z,51.42
2022-11-05T20:46:05.334Z,54.45
2022-11-05T20:48:34.893Z,54.88
2022-11-05T20:51:10.233Z,53.40
2022-11-05T20:53:37.707Z,51.72
2022-11-05T20:56:08.494Z,53.22
2022-11-05T20:58:36.656Z,53.80
2022-11-05T21:01:04.937Z,52.97
2022-11-05T21:03:31.489Z,56.33
2022-11-05T21:05:59.989Z,53.90
2022-11-05T21:08:29.417Z,53.33
2022-11-05T21:10:56.812Z,52.58
2022-11-05T21:13:24.138Z,52.20
2022-11-05T21:15:53.055Z,54.60
2022-11-05T21:18:21.207Z,52.28
2022-11-05T21:20:48.130Z,51.72
2022-11-05T21:23:15.492Z,54.03
2022-11-05T21:25:43.059Z,50.88
2022-11-05T21:28:11.467Z,51.72
2022-11-05T21:30:41.799Z,50.70
2022-11-05T21:33:08.926Z,53.63
2022-11-05T21:35:40.508Z,55.25
2022-11-05T21:38:10.289Z,52.05
2022-11-05T21:40:37.434Z,52.22
2022-11-05T21:43:05.324Z,53.00
2022-11-05T21:45:31.833Z,51.15
2022-11-05T21:47:58.524Z,51.13
2022-11-05T21:50:45.244Z,52.30
2022-11-05T21:53:34.693Z,49.67
2022-11-05T21:56:24.541Z,50.95
2022-11-05T21:59:09.876Z,52.05
2022-11-05T22:01:36.494Z,51.33
2022-11-05T22:04:03.512Z,49.03
2022-11-05T22:06:33.047Z,49.40
2022-11-05T22:08:59.882Z,51.97
2022-11-05T22:11:26.386Z,50.08
2022-11-05T22:13:53.180Z,51.13
2022-11-05T22:16:19.750Z,50.38
2022-11-05T22:18:46.340Z,51.13
2022-11-05T22:21:18.442Z,50.08
2022-11-05T22:23:45.063Z,49.90
2022-11-05T22:26:11.629Z,53.22
2022-11-05T22:28:38.099Z,53.22
2022-11-05T22:31:04.637Z,52.72
2022-11-05T22:33:31.567Z,55.28
2022-11-05T22:35:58.093Z,54.08
2022-11-05T22:38:24.590Z,55.50
2022-11-05T22:40:51.069Z,51.63
2022-11-05T22:43:17.583Z,52.63
2022-11-05T22:45:44.142Z,55.13
2022-11-05T22:48:11.004Z,53.55
2022-11-05T22:50:38.158Z,51.53
2022-11-05T22:53:04.654Z,49.75
2022-11-05T22:55:31.208Z,50.55
2022-11-05T22:57:57.723Z,50.35
2022-11-05T23:00:35.851Z,50.75
2022-11-05T23:03:03.030Z,50.67
2022-11-05T23:05:30.067Z,49.85
2022-11-05T23:08:15.391Z,51.95
2022-11-05T23:11:00.843Z,48.72
2022-11-05T23:13:27.399Z,46.47
2022-11-05T23:16:12.449Z,52.95
2022-11-05T23:18:57.337Z,48.05
2022-11-05T23:24:08.794Z,40.53
2022-11-05T23:26:50.265Z,45.30
2022-11-05T23:29:19.253Z,45.47
2022-11-05T23:32:04.057Z,47.65
2022-11-05T23:34:30.624Z,43.92
2022-11-05T23:37:16.265Z,45.75
2022-11-05T23:39:43.122Z,48.58
2022-11-05T23:42:29.212Z,46.50
2022-11-05T23:45:14.786Z,46.20
2022-11-05T23:48:00.754Z,46.15
2022-11-05T23:50:27.983Z,47.30
2022-11-05T23:52:55.570Z,46.33
2022-11-05T23:55:23.253Z,45.80
2022-11-05T23:57:50.317Z,46.75
